sensor_id;sensor_type;location;lat;lon;timestamp;temperature;humidity
67777;DHT22;54576;52.020;5.536;2022-12-05T00:01:28;3.60;99.90
67777;DHT22;54576;52.020;5.536;2022-12-05T00:03:59;3.70;99.90
67777;DHT22;54576;52.020;5.536;2022-12-05T00:06:27;3.70;99.90
67777;DHT22;54576;52.020;5.536;2022-12-05T00:08:53;3.70;99.90
67777;DHT22;54576;52.020;5.536;2022-12-05T00:11:25;3.70;99.90
67777;DHT22;54576;52.020;5.536;2022-12-05T00:13:52;3.70;99.90
67777;DHT22;54576;52.020;5.536;2022-12-05T00:16:21;3.70;99.90
67777;DHT22;54576;52.020;5.536;2022-12-05T00:18:47;3.70;99.90
67777;DHT22;54576;52.020;5.536;2022-12-05T00:21:20;3.70;99.90
67777;DHT22;54576;52.020;5.536;2022-12-05T00:23:46;3.70;99.90
67777;DHT22;54576;52.020;5.536;2022-12-05T00:26:12;3.70;99.90
67777;DHT22;54576;52.020;5.536;2022-12-05T00:28:38;3.70;99.90
67777;DHT22;54576;52.020;5.536;2022-12-05T00:31:11;3.70;99.90
67777;DHT22;54576;52.020;5.536;2022-12-05T00:33:37;3.70;99.90
67777;DHT22;54576;52.020;5.536;2022-12-05T00:36:05;3.70;99.90
67777;DHT22;54576;52.020;5.536;2022-12-05T00:38:30;3.70;99.90
67777;DHT22;54576;52.020;5.536;2022-12-05T00:41:11;3.80;99.90
67777;DHT22;54576;52.020;5.536;2022-12-05T00:43:39;3.80;99.90
67777;DHT22;54576;52.020;5.536;2022-12-05T00:46:11;3.80;99.90
67777;DHT22;54576;52.020;5.536;2022-12-05T00:48:58;3.80;99.90
67777;DHT22;54576;52.020;5.536;2022-12-05T00:51:43;3.80;99.90
67777;DHT22;54576;52.020;5.536;2022-12-05T00:54:29;3.80;99.90
67777;DHT22;54576;52.020;5.536;2022-12-05T00:56:55;3.80;99.90
67777;DHT22;54576;52.020;5.536;2022-12-05T00:59:21;3.80;99.90
67777;DHT22;54576;52.020;5.536;2022-12-05T01:01:47;3.80;99.90
67777;DHT22;54576;52.020;5.536;2022-12-05T01:04:16;3.80;99.90
67777;DHT22;54576;52.020;5.536;2022-12-05T01:06:43;3.80;99.90
67777;DHT22;54576;52.020;5.536;2022-12-05T01:09:12;3.80;99.90
67777;DHT22;54576;52.020;5.536;2022-12-05T01:11:38;3.80;99.90
67777;DHT22;54576;52.020;5.536;2022-12-05T01:14:03;3.80;99.90
67777;DHT22;54576;52.020;5.536;2022-12-05T01:16:50;3.80;99.90
67777;DHT22;54576;52.020;5.536;2022-12-05T01:19:22;3.80;99.90
67777;DHT22;54576;52.020;5.536;2022-12-05T01:21:49;3.80;99.90
67777;DHT22;54576;52.020;5.536;2022-12-05T01:24:15;3.80;99.90
67777;DHT22;54576;52.020;5.536;2022-12-05T01:26:44;3.80;99.90
67777;DHT22;54576;52.020;5.536;2022-12-05T01:29:11;3.80;99.90
67777;DHT22;54576;52.020;5.536;2022-12-05T01:32:06;3.80;99.90
67777;DHT22;54576;52.020;5.536;2022-12-05T01:34:31;3.80;99.90
67777;DHT22;54576;52.020;5.536;2022-12-05T01:36:57;3.80;99.90
67777;DHT22;54576;52.020;5.536;2022-12-05T01:39:22;3.80;99.90
67777;DHT22;54576;52.020;5.536;2022-12-05T01:41:50;3.90;99.90
67777;DHT22;54576;52.020;5.536;2022-12-05T01:46:46;3.80;99.90
67777;DHT22;54576;52.020;5.536;2022-12-05T01:49:30;3.90;99.90
67777;DHT22;54576;52.020;5.536;2022-12-05T01:52:02;3.90;99.90
67777;DHT22;54576;52.020;5.536;2022-12-05T01:54:28;3.90;99.90
67777;DHT22;54576;52.020;5.536;2022-12-05T01:57:01;3.90;99.90
67777;DHT22;54576;52.020;5.536;2022-12-05T01:59:30;3.90;99.90
67777;DHT22;54576;52.020;5.536;2022-12-05T02:01:56;3.90;99.90
67777;DHT22;54576;52.020;5.536;2022-12-05T02:04:22;3.90;99.90
67777;DHT22;54576;52.020;5.536;2022-12-05T02:06:48;3.90;99.90
67777;DHT22;54576;52.020;5.536;2022-12-05T02:09:13;3.90;99.90
67777;DHT22;54576;52.020;5.536;2022-12-05T02:11:53;3.90;99.90
67777;DHT22;54576;52.020;5.536;2022-12-05T02:14:32;3.90;99.90
67777;DHT22;54576;52.020;5.536;2022-12-05T02:25:30;3.90;99.90
67777;DHT22;54576;52.020;5.536;2022-12-05T02:30:58;3.90;99.90
67777;DHT22;54576;52.020;5.536;2022-12-05T02:33:45;4.00;99.90
67777;DHT22;54576;52.020;5.536;2022-12-05T02:44:36;4.00;99.90
67777;DHT22;54576;52.020;5.536;2022-12-05T02:47:03;4.00;99.90
67777;DHT22;54576;52.020;5.536;2022-12-05T02:49:35;4.00;99.90
67777;DHT22;54576;52.020;5.536;2022-12-05T02:52:04;4.10;99.90
67777;DHT22;54576;52.020;5.536;2022-12-05T02:54:34;4.10;99.90
67777;DHT22;54576;52.020;5.536;2022-12-05T02:57:01;4.10;99.90
67777;DHT22;54576;52.020;5.536;2022-12-05T02:59:27;4.10;99.90
67777;DHT22;54576;52.020;5.536;2022-12-05T03:01:53;4.10;99.90
67777;DHT22;54576;52.020;5.536;2022-12-05T03:04:21;4.10;99.90
67777;DHT22;54576;52.020;5.536;2022-12-05T03:06:57;4.10;99.90
67777;DHT22;54576;52.020;5.536;2022-12-05T03:09:37;4.10;99.90
67777;DHT22;54576;52.020;5.536;2022-12-05T03:14:33;4.20;99.90
67777;DHT22;54576;52.020;5.536;2022-12-05T03:17:04;4.20;99.90
67777;DHT22;54576;52.020;5.536;2022-12-05T03:19:36;4.20;99.90
67777;DHT22;54576;52.020;5.536;2022-12-05T03:22:28;4.20;99.90
67777;DHT22;54576;52.020;5.536;2022-12-05T03:24:55;4.20;99.90
67777;DHT22;54576;52.020;5.536;2022-12-05T03:27:28;4.20;99.90
67777;DHT22;54576;52.020;5.536;2022-12-05T03:30:08;4.30;99.90
67777;DHT22;54576;52.020;5.536;2022-12-05T03:32:41;4.30;99.90
67777;DHT22;54576;52.020;5.536;2022-12-05T03:38:14;4.30;99.90
67777;DHT22;54576;52.020;5.536;2022-12-05T03:40:56;4.30;99.90
67777;DHT22;54576;52.020;5.536;2022-12-05T03:43:36;4.30;99.90
67777;DHT22;54576;52.020;5.536;2022-12-05T03:46:15;4.30;99.90
67777;DHT22;54576;52.020;5.536;2022-12-05T03:51:22;4.30;99.90
67777;DHT22;54576;52.020;5.536;2022-12-05T03:53:59;4.30;99.90
67777;DHT22;54576;52.020;5.536;2022-12-05T03:56:34;4.30;99.90
67777;DHT22;54576;52.020;5.536;2022-12-05T03:59:14;4.30;99.90
67777;DHT22;54576;52.020;5.536;2022-12-05T04:01:42;4.30;99.90
67777;DHT22;54576;52.020;5.536;2022-12-05T04:04:17;4.30;99.90
67777;DHT22;54576;52.020;5.536;2022-12-05T04:06:47;4.30;99.90
67777;DHT22;54576;52.020;5.536;2022-12-05T04:09:18;4.30;99.90
67777;DHT22;54576;52.020;5.536;2022-12-05T04:11:50;4.40;99.90
67777;DHT22;54576;52.020;5.536;2022-12-05T04:14:31;4.40;99.90
67777;DHT22;54576;52.020;5.536;2022-12-05T04:17:09;4.40;99.90
67777;DHT22;54576;52.020;5.536;2022-12-05T04:22:36;4.40;99.90
67777;DHT22;54576;52.020;5.536;2022-12-05T04:25:05;4.40;99.90
67777;DHT22;54576;52.020;5.536;2022-12-05T04:33:14;4.40;99.90
67777;DHT22;54576;52.020;5.536;2022-12-05T04:35:45;4.40;99.90
67777;DHT22;54576;52.020;5.536;2022-12-05T04:38:21;4.40;99.90
67777;DHT22;54576;52.020;5.536;2022-12-05T04:40:57;4.40;99.90
67777;DHT22;54576;52.020;5.536;2022-12-05T04:43:25;4.40;99.90
67777;DHT22;54576;52.020;5.536;2022-12-05T04:45:53;4.40;99.90
67777;DHT22;54576;52.020;5.536;2022-12-05T04:48:21;4.40;99.90
67777;DHT22;54576;52.020;5.536;2022-12-05T04:50:53;4.40;99.90
67777;DHT22;54576;52.020;5.536;2022-12-05T04:53:22;4.40;99.90
67777;DHT22;54576;52.020;5.536;2022-12-05T04:55:51;4.40;99.90
67777;DHT22;54576;52.020;5.536;2022-12-05T04:58:21;4.40;99.90
67777;DHT22;54576;52.020;5.536;2022-12-05T05:00:55;4.40;99.90
67777;DHT22;54576;52.020;5.536;2022-12-05T05:06:15;4.40;99.90
67777;DHT22;54576;52.020;5.536;2022-12-05T05:08:56;4.50;99.90
67777;DHT22;54576;52.020;5.536;2022-12-05T05:11:25;4.50;99.90
67777;DHT22;54576;52.020;5.536;2022-12-05T05:14:01;4.40;99.90
67777;DHT22;54576;52.020;5.536;2022-12-05T05:16:30;4.40;99.90
67777;DHT22;54576;52.020;5.536;2022-12-05T05:18:56;4.40;99.90
67777;DHT22;54576;52.020;5.536;2022-12-05T05:21:24;4.50;99.90
67777;DHT22;54576;52.020;5.536;2022-12-05T05:23:51;4.50;99.90
67777;DHT22;54576;52.020;5.536;2022-12-05T05:26:17;4.50;99.90
67777;DHT22;54576;52.020;5.536;2022-12-05T05:28:44;4.50;99.90
67777;DHT22;54576;52.020;5.536;2022-12-05T05:31:11;4.50;99.90
67777;DHT22;54576;52.020;5.536;2022-12-05T05:33:37;4.50;99.90
67777;DHT22;54576;52.020;5.536;2022-12-05T05:36:08;4.50;99.90
67777;DHT22;54576;52.020;5.536;2022-12-05T05:38:42;4.50;99.90
67777;DHT22;54576;52.020;5.536;2022-12-05T05:41:16;4.50;99.90
67777;DHT22;54576;52.020;5.536;2022-12-05T05:43:42;4.60;99.90
67777;DHT22;54576;52.020;5.536;2022-12-05T05:46:09;4.60;99.90
67777;DHT22;54576;52.020;5.536;2022-12-05T05:48:36;4.60;99.90
67777;DHT22;54576;52.020;5.536;2022-12-05T05:51:02;4.60;99.90
67777;DHT22;54576;52.020;5.536;2022-12-05T05:53:28;4.60;99.90
67777;DHT22;54576;52.020;5.536;2022-12-05T05:55:54;4.60;99.90
67777;DHT22;54576;52.020;5.536;2022-12-05T05:58:20;4.60;99.90
67777;DHT22;54576;52.020;5.536;2022-12-05T06:00:45;4.60;99.90
67777;DHT22;54576;52.020;5.536;2022-12-05T06:03:11;4.60;99.90
67777;DHT22;54576;52.020;5.536;2022-12-05T06:05:37;4.60;99.90
67777;DHT22;54576;52.020;5.536;2022-12-05T06:08:04;4.70;99.90
67777;DHT22;54576;52.020;5.536;2022-12-05T06:10:29;4.70;99.90
67777;DHT22;54576;52.020;5.536;2022-12-05T06:12:56;4.70;99.90
67777;DHT22;54576;52.020;5.536;2022-12-05T06:15:22;4.70;99.90
67777;DHT22;54576;52.020;5.536;2022-12-05T06:17:48;4.70;99.90
67777;DHT22;54576;52.020;5.536;2022-12-05T06:20:13;4.70;99.90
67777;DHT22;54576;52.020;5.536;2022-12-05T06:22:39;4.70;99.90
67777;DHT22;54576;52.020;5.536;2022-12-05T06:25:05;4.80;99.90
67777;DHT22;54576;52.020;5.536;2022-12-05T06:27:31;4.80;99.90
67777;DHT22;54576;52.020;5.536;2022-12-05T06:29:57;4.80;99.90
67777;DHT22;54576;52.020;5.536;2022-12-05T06:32:23;4.80;99.90
67777;DHT22;54576;52.020;5.536;2022-12-05T06:34:48;4.80;99.90
67777;DHT22;54576;52.020;5.536;2022-12-05T06:37:14;4.80;99.90
67777;DHT22;54576;52.020;5.536;2022-12-05T06:39:39;4.80;99.90
67777;DHT22;54576;52.020;5.536;2022-12-05T06:42:05;4.80;99.90
67777;DHT22;54576;52.020;5.536;2022-12-05T06:44:31;4.80;99.90
67777;DHT22;54576;52.020;5.536;2022-12-05T06:46:56;4.80;99.90
67777;DHT22;54576;52.020;5.536;2022-12-05T06:49:23;4.80;99.90
67777;DHT22;54576;52.020;5.536;2022-12-05T06:51:52;4.80;99.90
67777;DHT22;54576;52.020;5.536;2022-12-05T06:54:17;4.80;99.90
67777;DHT22;54576;52.020;5.536;2022-12-05T06:56:43;4.90;99.90
67777;DHT22;54576;52.020;5.536;2022-12-05T06:59:09;4.90;99.90
67777;DHT22;54576;52.020;5.536;2022-12-05T07:01:34;4.90;99.90
67777;DHT22;54576;52.020;5.536;2022-12-05T07:04:05;4.90;99.90
67777;DHT22;54576;52.020;5.536;2022-12-05T07:06:32;4.90;99.90
67777;DHT22;54576;52.020;5.536;2022-12-05T07:08:58;4.90;99.90
67777;DHT22;54576;52.020;5.536;2022-12-05T07:11:23;4.90;99.90
67777;DHT22;54576;52.020;5.536;2022-12-05T07:13:49;4.90;99.90
67777;DHT22;54576;52.020;5.536;2022-12-05T07:16:14;4.90;99.90
67777;DHT22;54576;52.020;5.536;2022-12-05T07:18:40;4.90;99.90
67777;DHT22;54576;52.020;5.536;2022-12-05T07:21:09;5.00;99.90
67777;DHT22;54576;52.020;5.536;2022-12-05T07:23:35;5.00;99.90
67777;DHT22;54576;52.020;5.536;2022-12-05T07:26:04;5.00;99.90
67777;DHT22;54576;52.020;5.536;2022-12-05T07:28:30;5.00;99.90
67777;DHT22;54576;52.020;5.536;2022-12-05T07:31:04;5.00;99.90
67777;DHT22;54576;52.020;5.536;2022-12-05T07:33:30;5.00;99.90
67777;DHT22;54576;52.020;5.536;2022-12-05T07:36:04;5.00;99.90
67777;DHT22;54576;52.020;5.536;2022-12-05T07:38:30;5.10;99.90
67777;DHT22;54576;52.020;5.536;2022-12-05T07:40:55;5.10;99.90
67777;DHT22;54576;52.020;5.536;2022-12-05T07:43:21;5.10;99.90
67777;DHT22;54576;52.020;5.536;2022-12-05T07:45:48;5.10;99.90
67777;DHT22;54576;52.020;5.536;2022-12-05T07:48:14;5.10;99.90
67777;DHT22;54576;52.020;5.536;2022-12-05T07:50:40;5.10;99.90
67777;DHT22;54576;52.020;5.536;2022-12-05T07:53:05;5.10;99.90
67777;DHT22;54576;52.020;5.536;2022-12-05T07:55:31;5.10;99.90
67777;DHT22;54576;52.020;5.536;2022-12-05T07:57:56;5.10;99.90
67777;DHT22;54576;52.020;5.536;2022-12-05T08:00:22;5.10;99.90
67777;DHT22;54576;52.020;5.536;2022-12-05T08:02:47;5.10;99.90
67777;DHT22;54576;52.020;5.536;2022-12-05T08:05:14;5.10;99.90
67777;DHT22;54576;52.020;5.536;2022-12-05T08:07:40;5.10;99.90
67777;DHT22;54576;52.020;5.536;2022-12-05T08:10:06;5.10;99.90
67777;DHT22;54576;52.020;5.536;2022-12-05T08:12:32;5.10;99.90
67777;DHT22;54576;52.020;5.536;2022-12-05T08:14:58;5.10;99.90
67777;DHT22;54576;52.020;5.536;2022-12-05T08:17:23;5.10;99.90
67777;DHT22;54576;52.020;5.536;2022-12-05T08:19:49;5.20;99.90
67777;DHT22;54576;52.020;5.536;2022-12-05T08:22:14;5.20;99.90
67777;DHT22;54576;52.020;5.536;2022-12-05T08:24:40;5.20;99.90
67777;DHT22;54576;52.020;5.536;2022-12-05T08:27:06;5.20;99.90
67777;DHT22;54576;52.020;5.536;2022-12-05T08:29:31;5.20;99.90
67777;DHT22;54576;52.020;5.536;2022-12-05T08:31:57;5.20;99.90
67777;DHT22;54576;52.020;5.536;2022-12-05T08:34:23;5.20;99.90
67777;DHT22;54576;52.020;5.536;2022-12-05T08:36:49;5.30;99.90
67777;DHT22;54576;52.020;5.536;2022-12-05T08:39:16;5.30;99.90
67777;DHT22;54576;52.020;5.536;2022-12-05T08:41:43;5.30;99.90
67777;DHT22;54576;52.020;5.536;2022-12-05T08:44:11;5.30;99.90
67777;DHT22;54576;52.020;5.536;2022-12-05T08:46:41;5.30;99.90
67777;DHT22;54576;52.020;5.536;2022-12-05T08:49:07;5.30;99.90
67777;DHT22;54576;52.020;5.536;2022-12-05T08:51:33;5.30;99.90
67777;DHT22;54576;52.020;5.536;2022-12-05T08:54:01;5.30;99.90
67777;DHT22;54576;52.020;5.536;2022-12-05T08:56:27;5.30;99.90
67777;DHT22;54576;52.020;5.536;2022-12-05T08:58:54;5.30;99.90
67777;DHT22;54576;52.020;5.536;2022-12-05T09:01:21;5.30;99.90
67777;DHT22;54576;52.020;5.536;2022-12-05T09:03:47;5.30;99.90
67777;DHT22;54576;52.020;5.536;2022-12-05T09:06:19;5.30;99.90
67777;DHT22;54576;52.020;5.536;2022-12-05T09:08:46;5.30;99.90
67777;DHT22;54576;52.020;5.536;2022-12-05T09:11:17;5.30;99.90
67777;DHT22;54576;52.020;5.536;2022-12-05T09:13:44;5.30;99.90
67777;DHT22;54576;52.020;5.536;2022-12-05T09:16:13;5.30;99.90
67777;DHT22;54576;52.020;5.536;2022-12-05T09:18:39;5.30;99.90
67777;DHT22;54576;52.020;5.536;2022-12-05T09:21:16;5.40;99.90
67777;DHT22;54576;52.020;5.536;2022-12-05T09:23:42;5.40;99.90
67777;DHT22;54576;52.020;5.536;2022-12-05T09:26:13;5.40;99.90
67777;DHT22;54576;52.020;5.536;2022-12-05T09:28:39;5.40;99.90
67777;DHT22;54576;52.020;5.536;2022-12-05T09:31:17;5.40;99.90
67777;DHT22;54576;52.020;5.536;2022-12-05T09:33:45;5.50;99.90
67777;DHT22;54576;52.020;5.536;2022-12-05T09:36:20;5.50;99.90
67777;DHT22;54576;52.020;5.536;2022-12-05T09:38:47;5.50;99.90
67777;DHT22;54576;52.020;5.536;2022-12-05T09:44:24;5.60;99.90
67777;DHT22;54576;52.020;5.536;2022-12-05T09:47:01;5.60;99.90
67777;DHT22;54576;52.020;5.536;2022-12-05T09:49:29;5.60;99.90
67777;DHT22;54576;52.020;5.536;2022-12-05T09:51:57;5.60;99.90
67777;DHT22;54576;52.020;5.536;2022-12-05T09:54:24;5.60;99.90
67777;DHT22;54576;52.020;5.536;2022-12-05T09:56:50;5.60;99.90
67777;DHT22;54576;52.020;5.536;2022-12-05T09:59:18;5.70;99.90
67777;DHT22;54576;52.020;5.536;2022-12-05T10:01:53;5.60;99.90
67777;DHT22;54576;52.020;5.536;2022-12-05T10:07:33;5.70;99.90
67777;DHT22;54576;52.020;5.536;2022-12-05T10:13:07;5.60;99.90
67777;DHT22;54576;52.020;5.536;2022-12-05T10:15:56;5.70;99.90
67777;DHT22;54576;52.020;5.536;2022-12-05T10:18:36;5.70;99.90
67777;DHT22;54576;52.020;5.536;2022-12-05T10:21:19;5.70;99.90
67777;DHT22;54576;52.020;5.536;2022-12-05T10:23:59;5.70;99.90
67777;DHT22;54576;52.020;5.536;2022-12-05T10:26:35;5.80;99.90
67777;DHT22;54576;52.020;5.536;2022-12-05T10:29:20;5.80;99.90
67777;DHT22;54576;52.020;5.536;2022-12-05T10:31:48;5.80;99.90
67777;DHT22;54576;52.020;5.536;2022-12-05T10:36:57;5.80;99.90
67777;DHT22;54576;52.020;5.536;2022-12-05T10:39:26;5.80;99.90
67777;DHT22;54576;52.020;5.536;2022-12-05T10:41:51;5.80;99.90
67777;DHT22;54576;52.020;5.536;2022-12-05T10:44:17;5.80;99.90
67777;DHT22;54576;52.020;5.536;2022-12-05T10:46:43;5.90;99.90
67777;DHT22;54576;52.020;5.536;2022-12-05T10:49:12;5.90;99.90
67777;DHT22;54576;52.020;5.536;2022-12-05T10:51:38;5.90;99.90
67777;DHT22;54576;52.020;5.536;2022-12-05T10:54:23;5.90;99.90
67777;DHT22;54576;52.020;5.536;2022-12-05T10:56:51;5.90;99.90
67777;DHT22;54576;52.020;5.536;2022-12-05T10:59:20;5.90;99.90
67777;DHT22;54576;52.020;5.536;2022-12-05T11:01:48;5.90;99.90
67777;DHT22;54576;52.020;5.536;2022-12-05T11:04:41;5.90;99.90
67777;DHT22;54576;52.020;5.536;2022-12-05T11:07:31;5.90;99.90
67777;DHT22;54576;52.020;5.536;2022-12-05T11:09:58;5.90;99.90
67777;DHT22;54576;52.020;5.536;2022-12-05T11:12:36;5.90;99.90
67777;DHT22;54576;52.020;5.536;2022-12-05T11:17:40;5.90;99.90
67777;DHT22;54576;52.020;5.536;2022-12-05T11:22:40;5.90;99.90
67777;DHT22;54576;52.020;5.536;2022-12-05T11:25:29;5.90;99.90
67777;DHT22;54576;52.020;5.536;2022-12-05T11:28:21;5.80;99.90
67777;DHT22;54576;52.020;5.536;2022-12-05T11:31:01;5.90;99.90
67777;DHT22;54576;52.020;5.536;2022-12-05T11:33:30;5.90;99.90
67777;DHT22;54576;52.020;5.536;2022-12-05T11:38:29;6.00;99.90
67777;DHT22;54576;52.020;5.536;2022-12-05T11:58:07;6.10;99.90
67777;DHT22;54576;52.020;5.536;2022-12-05T12:00:59;6.10;99.90
67777;DHT22;54576;52.020;5.536;2022-12-05T12:06:32;6.10;99.90
67777;DHT22;54576;52.020;5.536;2022-12-05T12:12:20;6.20;99.90
67777;DHT22;54576;52.020;5.536;2022-12-05T12:14:58;6.20;99.90
67777;DHT22;54576;52.020;5.536;2022-12-05T12:35:36;6.30;99.90
67777;DHT22;54576;52.020;5.536;2022-12-05T12:38:30;6.30;99.90
67777;DHT22;54576;52.020;5.536;2022-12-05T12:46:41;6.30;99.90
67777;DHT22;54576;52.020;5.536;2022-12-05T12:52:23;6.20;99.90
67777;DHT22;54576;52.020;5.536;2022-12-05T13:03:33;6.30;99.90
67777;DHT22;54576;52.020;5.536;2022-12-05T13:06:31;6.30;99.90
67777;DHT22;54576;52.020;5.536;2022-12-05T13:09:02;6.40;99.90
67777;DHT22;54576;52.020;5.536;2022-12-05T13:11:36;6.40;99.90
67777;DHT22;54576;52.020;5.536;2022-12-05T13:14:03;6.30;99.90
67777;DHT22;54576;52.020;5.536;2022-12-05T13:16:38;6.30;99.90
67777;DHT22;54576;52.020;5.536;2022-12-05T13:19:05;6.30;99.90
67777;DHT22;54576;52.020;5.536;2022-12-05T13:21:32;6.30;99.90
67777;DHT22;54576;52.020;5.536;2022-12-05T13:23:59;6.30;99.90
67777;DHT22;54576;52.020;5.536;2022-12-05T13:26:31;6.30;99.90
67777;DHT22;54576;52.020;5.536;2022-12-05T13:29:02;6.30;99.90
67777;DHT22;54576;52.020;5.536;2022-12-05T13:34:00;6.30;99.90
67777;DHT22;54576;52.020;5.536;2022-12-05T13:36:26;6.30;99.90
67777;DHT22;54576;52.020;5.536;2022-12-05T13:41:58;6.30;99.90
67777;DHT22;54576;52.020;5.536;2022-12-05T13:44:51;6.30;99.90
67777;DHT22;54576;52.020;5.536;2022-12-05T13:47:26;6.30;99.90
67777;DHT22;54576;52.020;5.536;2022-12-05T13:52:30;6.20;99.90
67777;DHT22;54576;52.020;5.536;2022-12-05T13:55:23;6.20;99.90
67777;DHT22;54576;52.020;5.536;2022-12-05T13:57:56;6.20;99.90
67777;DHT22;54576;52.020;5.536;2022-12-05T14:02:55;6.20;99.90
67777;DHT22;54576;52.020;5.536;2022-12-05T14:07:50;6.10;99.90
67777;DHT22;54576;52.020;5.536;2022-12-05T14:10:21;6.10;99.90
67777;DHT22;54576;52.020;5.536;2022-12-05T14:13:02;6.00;99.90
67777;DHT22;54576;52.020;5.536;2022-12-05T14:15:39;6.00;99.90
67777;DHT22;54576;52.020;5.536;2022-12-05T14:21:23;6.00;99.90
67777;DHT22;54576;52.020;5.536;2022-12-05T14:24:31;6.00;99.90
67777;DHT22;54576;52.020;5.536;2022-12-05T14:30:03;6.00;99.90
67777;DHT22;54576;52.020;5.536;2022-12-05T14:32:37;6.00;99.90
67777;DHT22;54576;52.020;5.536;2022-12-05T14:35:14;6.00;99.90
67777;DHT22;54576;52.020;5.536;2022-12-05T14:38:00;6.00;99.90
67777;DHT22;54576;52.020;5.536;2022-12-05T14:40:28;6.00;99.90
67777;DHT22;54576;52.020;5.536;2022-12-05T14:43:20;6.00;99.90
67777;DHT22;54576;52.020;5.536;2022-12-05T14:50:44;6.00;99.90
67777;DHT22;54576;52.020;5.536;2022-12-05T14:55:46;6.00;99.90
67777;DHT22;54576;52.020;5.536;2022-12-05T15:00:52;6.10;99.90
67777;DHT22;54576;52.020;5.536;2022-12-05T15:03:24;6.10;99.90
67777;DHT22;54576;52.020;5.536;2022-12-05T15:05:52;6.10;99.90
67777;DHT22;54576;52.020;5.536;2022-12-05T15:08:19;6.10;99.90
67777;DHT22;54576;52.020;5.536;2022-12-05T15:10:45;6.10;99.90
67777;DHT22;54576;52.020;5.536;2022-12-05T15:18:29;6.10;99.90
67777;DHT22;54576;52.020;5.536;2022-12-05T15:21:09;6.10;99.90
67777;DHT22;54576;52.020;5.536;2022-12-05T15:26:29;6.00;99.90
67777;DHT22;54576;52.020;5.536;2022-12-05T15:31:57;6.00;99.90
67777;DHT22;54576;52.020;5.536;2022-12-05T15:37:32;6.00;99.90
67777;DHT22;54576;52.020;5.536;2022-12-05T15:42:35;6.00;99.90
67777;DHT22;54576;52.020;5.536;2022-12-05T15:45:18;6.00;99.90
67777;DHT22;54576;52.020;5.536;2022-12-05T15:47:49;6.00;99.90
67777;DHT22;54576;52.020;5.536;2022-12-05T15:50:30;6.00;99.90
67777;DHT22;54576;52.020;5.536;2022-12-05T15:53:34;6.00;99.90
67777;DHT22;54576;52.020;5.536;2022-12-05T15:56:08;6.00;99.90
67777;DHT22;54576;52.020;5.536;2022-12-05T15:58:41;6.00;99.90
67777;DHT22;54576;52.020;5.536;2022-12-05T16:01:12;6.00;99.90
67777;DHT22;54576;52.020;5.536;2022-12-05T16:03:43;6.00;99.90
67777;DHT22;54576;52.020;5.536;2022-12-05T16:06:16;6.00;99.90
67777;DHT22;54576;52.020;5.536;2022-12-05T16:08:48;6.00;99.90
67777;DHT22;54576;52.020;5.536;2022-12-05T16:11:14;6.10;99.90
67777;DHT22;54576;52.020;5.536;2022-12-05T16:13:45;6.10;99.90
67777;DHT22;54576;52.020;5.536;2022-12-05T16:16:31;6.10;99.90
67777;DHT22;54576;52.020;5.536;2022-12-05T16:19:05;6.10;99.90
67777;DHT22;54576;52.020;5.536;2022-12-05T16:21:44;6.10;99.90
67777;DHT22;54576;52.020;5.536;2022-12-05T16:24:20;6.10;99.90
67777;DHT22;54576;52.020;5.536;2022-12-05T16:26:56;6.10;99.90
67777;DHT22;54576;52.020;5.536;2022-12-05T16:29:33;6.10;99.90
67777;DHT22;54576;52.020;5.536;2022-12-05T16:32:01;6.10;99.90
67777;DHT22;54576;52.020;5.536;2022-12-05T16:34:31;6.10;99.90
67777;DHT22;54576;52.020;5.536;2022-12-05T16:36:56;6.10;99.90
67777;DHT22;54576;52.020;5.536;2022-12-05T16:39:23;6.10;99.90
67777;DHT22;54576;52.020;5.536;2022-12-05T16:41:49;6.10;99.90
67777;DHT22;54576;52.020;5.536;2022-12-05T16:44:52;6.20;99.90
67777;DHT22;54576;52.020;5.536;2022-12-05T16:47:23;6.10;99.90
67777;DHT22;54576;52.020;5.536;2022-12-05T16:49:49;6.10;99.90
67777;DHT22;54576;52.020;5.536;2022-12-05T16:52:15;6.10;99.90
67777;DHT22;54576;52.020;5.536;2022-12-05T16:54:44;6.10;99.90
67777;DHT22;54576;52.020;5.536;2022-12-05T16:57:12;6.10;99.90
67777;DHT22;54576;52.020;5.536;2022-12-05T16:59:39;6.10;99.90
67777;DHT22;54576;52.020;5.536;2022-12-05T17:02:12;6.10;99.90
67777;DHT22;54576;52.020;5.536;2022-12-05T17:04:38;6.10;99.90
67777;DHT22;54576;52.020;5.536;2022-12-05T17:07:04;6.10;99.90
67777;DHT22;54576;52.020;5.536;2022-12-05T17:09:30;6.10;99.90
67777;DHT22;54576;52.020;5.536;2022-12-05T17:12:10;6.10;99.90
67777;DHT22;54576;52.020;5.536;2022-12-05T17:14:37;6.10;99.90
67777;DHT22;54576;52.020;5.536;2022-12-05T17:17:10;6.10;99.90
67777;DHT22;54576;52.020;5.536;2022-12-05T17:19:36;6.10;99.90
67777;DHT22;54576;52.020;5.536;2022-12-05T17:22:03;6.00;99.90
67777;DHT22;54576;52.020;5.536;2022-12-05T17:24:30;6.00;99.90
67777;DHT22;54576;52.020;5.536;2022-12-05T17:26:56;6.00;99.90
67777;DHT22;54576;52.020;5.536;2022-12-05T17:29:21;6.00;99.90
67777;DHT22;54576;52.020;5.536;2022-12-05T17:31:47;6.00;99.90
67777;DHT22;54576;52.020;5.536;2022-12-05T17:34:15;6.10;99.90
67777;DHT22;54576;52.020;5.536;2022-12-05T17:36:42;6.10;99.90
67777;DHT22;54576;52.020;5.536;2022-12-05T17:39:07;6.10;99.90
67777;DHT22;54576;52.020;5.536;2022-12-05T17:41:33;6.10;99.90
67777;DHT22;54576;52.020;5.536;2022-12-05T17:43:59;6.10;99.90
67777;DHT22;54576;52.020;5.536;2022-12-05T17:46:25;6.10;99.90
67777;DHT22;54576;52.020;5.536;2022-12-05T17:48:51;6.10;99.90
67777;DHT22;54576;52.020;5.536;2022-12-05T17:51:17;6.10;99.90
67777;DHT22;54576;52.020;5.536;2022-12-05T17:53:43;6.00;99.90
67777;DHT22;54576;52.020;5.536;2022-12-05T17:56:10;6.00;99.90
67777;DHT22;54576;52.020;5.536;2022-12-05T17:58:36;6.00;99.90
67777;DHT22;54576;52.020;5.536;2022-12-05T18:01:02;6.00;99.90
67777;DHT22;54576;52.020;5.536;2022-12-05T18:03:28;6.00;99.90
67777;DHT22;54576;52.020;5.536;2022-12-05T18:05:53;6.00;99.90
67777;DHT22;54576;52.020;5.536;2022-12-05T18:08:19;6.00;99.90
67777;DHT22;54576;52.020;5.536;2022-12-05T18:10:46;6.00;99.90
67777;DHT22;54576;52.020;5.536;2022-12-05T18:13:12;6.00;99.90
67777;DHT22;54576;52.020;5.536;2022-12-05T18:15:38;6.00;99.90
67777;DHT22;54576;52.020;5.536;2022-12-05T18:18:04;6.00;99.90
67777;DHT22;54576;52.020;5.536;2022-12-05T18:20:32;6.10;99.90
67777;DHT22;54576;52.020;5.536;2022-12-05T18:22:58;6.10;99.90
67777;DHT22;54576;52.020;5.536;2022-12-05T18:25:24;6.10;99.90
67777;DHT22;54576;52.020;5.536;2022-12-05T18:27:49;6.10;99.90
67777;DHT22;54576;52.020;5.536;2022-12-05T18:30:18;6.10;99.90
67777;DHT22;54576;52.020;5.536;2022-12-05T18:32:43;6.10;99.90
67777;DHT22;54576;52.020;5.536;2022-12-05T18:35:10;6.10;99.90
67777;DHT22;54576;52.020;5.536;2022-12-05T18:37:39;6.10;99.90
67777;DHT22;54576;52.020;5.536;2022-12-05T18:40:06;6.10;99.90
67777;DHT22;54576;52.020;5.536;2022-12-05T18:42:32;6.10;99.90
67777;DHT22;54576;52.020;5.536;2022-12-05T18:44:58;6.10;99.90
67777;DHT22;54576;52.020;5.536;2022-12-05T18:47:24;6.10;99.90
67777;DHT22;54576;52.020;5.536;2022-12-05T18:49:50;6.20;99.90
67777;DHT22;54576;52.020;5.536;2022-12-05T18:52:16;6.20;99.90